createdAt,value
2022-08-28T00:00:40.258Z,6.25
2022-08-28T00:03:10.622Z,6.22
2022-08-28T00:05:39.931Z,6.63
2022-08-28T00:08:10.004Z,6.68
2022-08-28T00:10:40.080Z,6.30
2022-08-28T00:13:18.607Z,6.32
2022-08-28T00:15:49.059Z,7.47
2022-08-28T00:18:17.875Z,6.95
2022-08-28T00:20:46.603Z,7.00
2022-08-28T00:23:15.019Z,7.60
2022-08-28T00:25:42.832Z,7.47
2022-08-28T00:28:21.029Z,7.20
2022-08-28T00:30:56.156Z,6.90
2022-08-28T00:33:27.431Z,8.23
2022-08-28T00:35:56.032Z,7.63
2022-08-28T00:38:27.166Z,7.80
2022-08-28T00:40:59.421Z,8.48
2022-08-28T00:43:44.933Z,7.32
2022-08-28T00:46:21.414Z,6.82
2022-08-28T00:48:49.949Z,6.53
2022-08-28T00:51:38.585Z,8.18
2022-08-28T00:54:08.254Z,7.53
2022-08-28T00:56:39.415Z,7.10
2022-08-28T00:59:16.067Z,6.47
2022-08-28T01:01:46.281Z,6.93
2022-08-28T01:04:17.981Z,6.15
2022-08-28T01:06:53.870Z,6.30
2022-08-28T01:09:25.961Z,5.90
2022-08-28T01:12:19.626Z,6.07
2022-08-28T01:14:52.006Z,6.25
2022-08-28T01:17:23.727Z,5.85
2022-08-28T01:19:57.447Z,5.82
2022-08-28T01:22:32.551Z,6.03
2022-08-28T01:25:05.918Z,5.25
2022-08-28T01:27:33.489Z,5.72
2022-08-28T01:30:01.753Z,5.88
2022-08-28T01:32:56.833Z,4.90
2022-08-28T01:35:30.178Z,5.80
2022-08-28T01:37:58.482Z,6.47
2022-08-28T01:40:38.097Z,8.50
2022-08-28T01:43:22.514Z,7.03
2022-08-28T01:45:56.322Z,6.80
2022-08-28T01:48:26.971Z,7.65
2022-08-28T01:50:56.026Z,8.77
2022-08-28T01:53:30.748Z,8.60
2022-08-28T01:56:05.293Z,8.23
2022-08-28T01:58:37.955Z,8.73
2022-08-28T02:01:17.075Z,9.45
2022-08-28T02:03:44.801Z,8.93
2022-08-28T02:06:16.564Z,8.90
2022-08-28T02:08:44.149Z,8.82
2022-08-28T02:11:12.378Z,10.52
2022-08-28T02:13:40.794Z,9.05
2022-08-28T02:16:11.033Z,9.47
2022-08-28T02:18:39.096Z,8.70
2022-08-28T02:21:09.259Z,9.80
2022-08-28T02:23:40.244Z,8.75
2022-08-28T02:26:09.822Z,8.20
2022-08-28T02:28:38.034Z,8.85
2022-08-28T02:31:09.447Z,8.50
2022-08-28T02:33:44.309Z,8.40
2022-08-28T02:36:15.096Z,8.18
2022-08-28T02:38:45.444Z,9.30
2022-08-28T02:41:13.947Z,9.10
2022-08-28T02:43:41.482Z,9.02
2022-08-28T02:46:10.143Z,10.48
2022-08-28T02:48:40.575Z,9.07
2022-08-28T02:51:13.387Z,11.02
2022-08-28T02:53:42.352Z,8.85
2022-08-28T02:56:10.503Z,9.82
2022-08-28T02:58:39.468Z,9.45
2022-08-28T03:01:11.377Z,9.35
2022-08-28T03:03:41.401Z,10.40
2022-08-28T03:06:12.605Z,11.25
2022-08-28T03:08:42.230Z,10.45
2022-08-28T03:11:10.484Z,11.52
2022-08-28T03:13:38.870Z,10.85
2022-08-28T03:16:07.074Z,8.43
2022-08-28T03:18:35.142Z,8.23
2022-08-28T03:21:03.179Z,6.72
2022-08-28T03:23:31.818Z,7.50
2022-08-28T03:26:07.113Z,7.63
2022-08-28T03:28:39.426Z,6.13
2022-08-28T03:31:10.101Z,5.82
2022-08-28T03:33:38.114Z,7.95
2022-08-28T03:36:12.953Z,6.95
2022-08-28T03:38:41.969Z,6.80
2022-08-28T03:43:43.072Z,6.90
2022-08-28T03:46:17.656Z,6.80
2022-08-28T03:48:46.102Z,7.55
2022-08-28T03:51:18.755Z,5.80
2022-08-28T03:53:49.419Z,7.07
2022-08-28T03:56:23.959Z,9.20
2022-08-28T03:58:57.470Z,7.65
2022-08-28T04:01:25.574Z,7.00
2022-08-28T04:03:53.432Z,7.35
2022-08-28T04:06:21.143Z,7.15
2022-08-28T04:08:48.755Z,7.40
2022-08-28T04:11:17.385Z,7.70
2022-08-28T04:13:45.438Z,7.22
2022-08-28T04:16:16.749Z,7.40
2022-08-28T04:18:45.750Z,7.72
2022-08-28T04:21:20.112Z,8.60
2022-08-28T04:23:48.488Z,8.10
2022-08-28T04:26:19.940Z,8.02
2022-08-28T04:28:50.135Z,10.00
2022-08-28T04:31:32.380Z,8.25
2022-08-28T04:34:02.491Z,9.85
2022-08-28T04:36:30.918Z,9.13
2022-08-28T04:38:59.370Z,8.88
2022-08-28T04:41:28.502Z,8.88
2022-08-28T04:43:57.941Z,9.23
2022-08-28T04:46:26.036Z,8.82
2022-08-28T04:48:53.915Z,9.47
2022-08-28T04:51:22.481Z,10.80
2022-08-28T04:53:50.034Z,10.65
2022-08-28T04:56:18.261Z,11.32
2022-08-28T04:58:46.189Z,10.75
2022-08-28T05:01:26.960Z,10.77
2022-08-28T05:04:02.256Z,11.50
2022-08-28T05:06:32.181Z,11.77
2022-08-28T05:09:03.586Z,11.80
2022-08-28T05:11:34.484Z,11.73
2022-08-28T05:14:11.595Z,12.65
2022-08-28T05:16:50.228Z,12.27
2022-08-28T05:19:20.275Z,12.85
2022-08-28T05:21:48.725Z,13.45
2022-08-28T05:24:16.730Z,12.03
2022-08-28T05:26:48.334Z,12.60
2022-08-28T05:29:16.999Z,13.25
2022-08-28T05:31:45.274Z,13.82
2022-08-28T05:36:42.800Z,14.27
2022-08-28T05:39:12.498Z,13.55
2022-08-28T05:41:43.291Z,13.35
2022-08-28T05:44:14.866Z,13.25
2022-08-28T05:46:47.463Z,13.60
2022-08-28T05:49:17.915Z,12.50
2022-08-28T05:51:46.824Z,13.20
2022-08-28T05:54:15.739Z,13.55
2022-08-28T05:59:13.909Z,13.18
2022-08-28T06:01:46.425Z,13.27
2022-08-28T06:04:25.452Z,12.80
2022-08-28T06:06:54.106Z,12.07
2022-08-28T06:09:30.205Z,12.23
2022-08-28T06:12:02.855Z,12.90
2022-08-28T06:14:31.971Z,12.45
2022-08-28T06:17:00.985Z,12.00
2022-08-28T06:19:31.823Z,12.82
2022-08-28T06:22:07.501Z,12.93
2022-08-28T06:24:36.265Z,12.52
2022-08-28T06:27:04.569Z,13.25
2022-08-28T06:29:32.099Z,12.50
2022-08-28T06:32:03.424Z,12.57
2022-08-28T06:34:31.535Z,11.63
2022-08-28T06:36:59.025Z,12.45
2022-08-28T06:39:27.022Z,12.02
2022-08-28T06:41:54.838Z,12.40
2022-08-28T06:44:22.783Z,11.98
2022-08-28T06:46:53.619Z,11.85
2022-08-28T06:49:22.333Z,11.95
2022-08-28T06:51:50.534Z,11.85
2022-08-28T06:54:22.935Z,11.03
2022-08-28T06:56:52.346Z,12.75
2022-08-28T06:59:19.934Z,11.45
2022-08-28T07:01:47.576Z,11.55
2022-08-28T07:04:15.478Z,11.40
2022-08-28T07:06:54.295Z,10.73
2022-08-28T07:09:24.490Z,11.60
2022-08-28T07:11:52.537Z,11.95
2022-08-28T07:14:20.092Z,11.40
2022-08-28T07:16:47.991Z,11.80
2022-08-28T07:19:16.207Z,11.50
2022-08-28T07:21:46.484Z,12.70
2022-08-28T07:24:16.914Z,11.68
2022-08-28T07:26:47.018Z,11.52
2022-08-28T07:29:15.443Z,12.40
2022-08-28T07:31:53.153Z,10.67
2022-08-28T07:34:26.827Z,11.85
2022-08-28T07:36:56.293Z,11.30
2022-08-28T07:39:24.470Z,11.15
2022-08-28T07:41:51.946Z,11.23
2022-08-28T07:44:38.175Z,11.32
2022-08-28T07:47:08.817Z,10.50
2022-08-28T07:49:36.620Z,10.57
2022-08-28T07:52:09.224Z,11.40
2022-08-28T07:54:40.369Z,10.85
2022-08-28T07:57:10.331Z,12.52
2022-08-28T07:59:38.937Z,11.15
2022-08-28T08:02:07.028Z,11.18
2022-08-28T08:04:35.250Z,10.93
2022-08-28T08:07:04.738Z,11.60
2022-08-28T08:09:36.866Z,10.77
2022-08-28T08:12:05.654Z,10.57
2022-08-28T08:14:33.261Z,11.32
2022-08-28T08:17:04.013Z,10.27
2022-08-28T08:19:36.460Z,10.88
2022-08-28T08:22:04.250Z,9.75
2022-08-28T08:24:32.138Z,9.50
2022-08-28T08:27:02.340Z,10.95
2022-08-28T08:29:35.808Z,10.43
2022-08-28T08:32:08.939Z,9.80
2022-08-28T08:34:42.275Z,10.13
2022-08-28T08:37:11.784Z,10.73
2022-08-28T08:39:41.663Z,9.75
2022-08-28T08:42:31.979Z,10.18
2022-08-28T08:45:05.780Z,9.32
2022-08-28T08:47:52.430Z,9.77
2022-08-28T08:50:35.407Z,11.50
2022-08-28T08:53:21.803Z,10.10
2022-08-28T08:55:53.571Z,9.77
2022-08-28T08:58:53.154Z,9.10
2022-08-28T09:01:29.169Z,10.20
2022-08-28T09:04:08.537Z,10.20
2022-08-28T09:07:09.171Z,9.63
2022-08-28T09:09:52.855Z,9.38
2022-08-28T09:12:30.371Z,9.27
2022-08-28T09:15:05.529Z,10.23
2022-08-28T09:17:42.578Z,9.10
2022-08-28T09:20:14.993Z,10.60
2022-08-28T09:22:48.669Z,8.93
2022-08-28T09:26:12.556Z,9.13
2022-08-28T09:28:41.880Z,9.60
2022-08-28T09:31:30.060Z,9.43
2022-08-28T09:34:38.119Z,9.43
2022-08-28T09:37:08.479Z,9.55
2022-08-28T09:39:36.417Z,9.98
2022-08-28T09:42:41.593Z,9.50
2022-08-28T09:45:20.596Z,9.40
2022-08-28T09:50:31.336Z,8.13
2022-08-28T09:53:09.473Z,10.15
2022-08-28T09:56:11.101Z,8.98
2022-08-28T09:58:59.811Z,12.07
2022-08-28T10:01:34.931Z,9.20
2022-08-28T10:04:44.472Z,8.07
2022-08-28T10:07:37.593Z,8.77
2022-08-28T10:10:21.430Z,8.35
2022-08-28T10:13:06.993Z,9.13
2022-08-28T10:15:56.164Z,8.10
2022-08-28T10:18:51.781Z,8.85
2022-08-28T10:21:40.457Z,8.93
2022-08-28T10:24:26.999Z,8.00
2022-08-28T10:27:15.658Z,7.90
2022-08-28T10:30:12.445Z,8.02
2022-08-28T10:33:00.016Z,9.00
2022-08-28T10:36:03.702Z,10.88
2022-08-28T10:38:49.501Z,7.95
2022-08-28T10:41:41.238Z,8.30
2022-08-28T10:44:14.000Z,8.35
2022-08-28T10:46:55.656Z,8.85
2022-08-28T10:49:29.038Z,7.90
2022-08-28T10:52:15.653Z,7.72
2022-08-28T10:55:12.652Z,8.38
2022-08-28T10:58:02.607Z,8.38
2022-08-28T11:00:30.610Z,8.32
2022-08-28T11:03:22.235Z,8.07
2022-08-28T11:06:08.388Z,7.70
2022-08-28T11:08:38.445Z,8.00
2022-08-28T11:11:13.884Z,8.13
2022-08-28T11:13:55.022Z,7.25
2022-08-28T11:16:30.170Z,7.30
2022-08-28T11:19:11.228Z,7.22
2022-08-28T11:21:52.530Z,8.00
2022-08-28T11:24:32.602Z,7.45
2022-08-28T11:27:16.976Z,7.10
2022-08-28T11:30:06.558Z,6.63
2022-08-28T11:32:56.143Z,7.82
2022-08-28T11:35:41.332Z,6.63
2022-08-28T11:38:10.283Z,7.22
2022-08-28T11:40:56.810Z,6.13
2022-08-28T11:43:24.302Z,6.60
2022-08-28T11:45:55.045Z,6.78
2022-08-28T11:48:35.477Z,6.53
2022-08-28T11:51:13.741Z,6.22
2022-08-28T11:54:11.672Z,6.88
2022-08-28T11:56:48.034Z,5.72
2022-08-28T11:59:59.823Z,6.28
2022-08-28T12:02:39.399Z,6.80
2022-08-28T12:05:33.161Z,6.45
2022-08-28T12:08:03.919Z,7.10
2022-08-28T12:10:32.538Z,6.03
2022-08-28T12:13:09.705Z,5.80
2022-08-28T12:15:42.727Z,6.13
2022-08-28T12:18:13.262Z,6.28
2022-08-28T12:21:04.353Z,5.30
2022-08-28T12:24:09.007Z,5.57
2022-08-28T12:26:44.682Z,6.70
2022-08-28T12:29:45.008Z,5.25
2022-08-28T12:32:41.205Z,6.47
2022-08-28T12:35:26.105Z,5.72
2022-08-28T12:37:53.807Z,5.05
2022-08-28T12:40:37.852Z,5.27
2022-08-28T12:43:10.923Z,5.53
2022-08-28T12:45:58.589Z,4.95
2022-08-28T12:48:34.456Z,5.90
2022-08-28T12:51:14.713Z,5.75
2022-08-28T12:53:54.026Z,5.82
2022-08-28T12:56:24.616Z,5.10
2022-08-28T12:58:52.959Z,4.97
2022-08-28T13:01:33.117Z,5.07
2022-08-28T13:04:24.283Z,4.72
2022-08-28T13:07:06.782Z,4.75
2022-08-28T13:09:35.613Z,4.68
2022-08-28T13:12:03.952Z,5.03
2022-08-28T13:14:52.392Z,4.63
2022-08-28T13:17:47.446Z,4.10
2022-08-28T13:20:31.168Z,4.80
2022-08-28T13:23:00.033Z,4.57
2022-08-28T13:25:34.641Z,4.47
2022-08-28T13:28:11.137Z,4.60
2022-08-28T13:30:38.844Z,4.75
2022-08-28T13:33:26.001Z,4.70
2022-08-28T13:35:54.990Z,4.88
2022-08-28T13:38:25.212Z,4.30
2022-08-28T13:41:02.415Z,5.00
2022-08-28T13:43:45.855Z,5.90
2022-08-28T13:46:13.659Z,5.20
2022-08-28T13:51:16.383Z,5.13
2022-08-28T13:53:50.516Z,4.80
2022-08-28T13:56:20.132Z,5.50
2022-08-28T13:58:58.125Z,4.95
2022-08-28T14:01:46.409Z,5.72
2022-08-28T14:04:14.928Z,4.63
2022-08-28T14:06:44.168Z,6.40
2022-08-28T14:09:15.307Z,5.65
2022-08-28T14:11:49.744Z,5.93
2022-08-28T14:14:17.600Z,4.68
2022-08-28T14:16:45.821Z,5.65
2022-08-28T14:19:13.568Z,5.22
2022-08-28T14:21:41.860Z,4.80
2022-08-28T14:24:09.490Z,5.72
2022-08-28T14:26:37.680Z,5.38
2022-08-28T14:29:08.516Z,4.70
2022-08-28T14:31:37.505Z,4.38
2022-08-28T14:34:05.692Z,4.47
2022-08-28T14:36:33.914Z,5.60
2022-08-28T14:39:06.280Z,4.00
2022-08-28T14:41:35.613Z,5.45
2022-08-28T14:44:04.425Z,4.78
2022-08-28T14:46:35.955Z,4.70
2022-08-28T14:49:09.045Z,4.90
2022-08-28T14:51:41.162Z,4.45
2022-08-28T14:54:11.848Z,3.85
2022-08-28T14:56:40.995Z,5.13
2022-08-28T14:59:13.418Z,4.22
2022-08-28T15:01:45.001Z,5.18
2022-08-28T15:04:17.859Z,4.70
2022-08-28T15:06:46.192Z,6.03
2022-08-28T15:09:14.587Z,9.43
2022-08-28T15:11:43.947Z,5.18
2022-08-28T15:14:12.375Z,4.82
2022-08-28T15:16:45.532Z,4.80
2022-08-28T15:19:17.819Z,4.72
2022-08-28T15:21:50.094Z,5.82
2022-08-28T15:24:25.857Z,5.43
2022-08-28T15:26:54.037Z,4.85
2022-08-28T15:29:21.621Z,4.38
2022-08-28T15:31:53.515Z,5.50
2022-08-28T15:34:26.914Z,5.25
2022-08-28T15:36:56.495Z,4.57
2022-08-28T15:39:45.330Z,5.20
2022-08-28T15:42:14.136Z,5.70
2022-08-28T15:44:42.178Z,5.57
2022-08-28T15:47:10.468Z,4.40
2022-08-28T15:49:44.596Z,5.03
2022-08-28T15:52:19.185Z,6.10
2022-08-28T15:54:48.303Z,6.10
2022-08-28T15:57:16.174Z,6.07
2022-08-28T15:59:49.709Z,6.15
2022-08-28T16:02:22.092Z,7.30
2022-08-28T16:04:50.258Z,6.97
2022-08-28T16:07:20.819Z,5.82
2022-08-28T16:09:49.204Z,6.63
2022-08-28T16:12:17.366Z,6.68
2022-08-28T16:14:44.969Z,6.45
2022-08-28T16:17:12.598Z,19.63
2022-08-28T16:22:10.264Z,5.88
2022-08-28T16:24:38.543Z,6.68
2022-08-28T16:27:07.874Z,6.72
2022-08-28T16:29:38.691Z,7.63
2022-08-28T16:32:07.482Z,5.85
2022-08-28T16:34:36.868Z,7.72
2022-08-28T16:37:04.673Z,7.45
2022-08-28T16:39:32.694Z,6.03
2022-08-28T16:42:00.243Z,7.00
2022-08-28T16:44:27.957Z,7.33
2022-08-28T16:46:56.450Z,6.28
2022-08-28T16:49:24.782Z,8.93
2022-08-28T16:51:52.883Z,7.68
2022-08-28T16:54:21.809Z,7.85
2022-08-28T16:56:49.452Z,7.82
2022-08-28T16:59:18.267Z,8.30
2022-08-28T17:01:53.101Z,7.65
2022-08-28T17:04:22.137Z,9.38
2022-08-28T17:06:50.246Z,8.55
2022-08-28T17:09:21.042Z,8.85
2022-08-28T17:11:52.093Z,9.88
2022-08-28T17:14:21.792Z,9.57
2022-08-28T17:16:50.534Z,8.73
2022-08-28T17:19:19.450Z,9.68
2022-08-28T17:22:06.164Z,9.18
2022-08-28T17:24:33.824Z,9.13
2022-08-28T17:27:05.365Z,9.43
2022-08-28T17:29:36.352Z,8.32
2022-08-28T17:32:05.817Z,8.35
2022-08-28T17:34:33.630Z,7.90
2022-08-28T17:37:01.786Z,9.37
2022-08-28T17:39:29.817Z,8.98
2022-08-28T17:41:57.678Z,8.15
2022-08-28T17:44:25.633Z,8.70
2022-08-28T17:46:53.501Z,8.63
2022-08-28T17:49:22.394Z,8.55
2022-08-28T17:51:51.119Z,9.63
2022-08-28T17:54:22.634Z,9.35
2022-08-28T17:56:52.709Z,9.02
2022-08-28T17:59:21.549Z,9.68
2022-08-28T18:01:49.958Z,9.07
2022-08-28T18:04:24.189Z,9.15
2022-08-28T18:06:54.710Z,10.18
2022-08-28T18:09:24.170Z,8.68
2022-08-28T18:11:53.298Z,10.18
2022-08-28T18:14:21.761Z,9.65
2022-08-28T18:16:49.411Z,8.82
2022-08-28T18:19:17.038Z,9.38
2022-08-28T18:21:45.100Z,8.60
2022-08-28T18:24:13.158Z,8.85
2022-08-28T18:26:43.438Z,9.68
2022-08-28T18:29:12.542Z,8.48
2022-08-28T18:31:41.582Z,8.20
2022-08-28T18:34:10.074Z,10.10
2022-08-28T18:36:43.561Z,7.80
2022-08-28T18:39:11.909Z,8.70
2022-08-28T18:41:43.735Z,8.20
2022-08-28T18:44:15.216Z,8.18
2022-08-28T18:46:44.143Z,9.73
2022-08-28T18:49:12.511Z,7.95
2022-08-28T18:51:43.475Z,7.95
2022-08-28T18:54:18.003Z,7.95
2022-08-28T18:56:50.310Z,8.48
2022-08-28T18:59:19.089Z,8.13
2022-08-28T19:01:47.020Z,7.63
2022-08-28T19:04:14.734Z,7.65
2022-08-28T19:06:42.508Z,7.80
2022-08-28T19:09:20.606Z,7.65
2022-08-28T19:11:48.678Z,7.70
2022-08-28T19:14:16.603Z,7.40
2022-08-28T19:16:45.093Z,7.77
2022-08-28T19:19:12.696Z,7.40
2022-08-28T19:21:40.496Z,8.30
2022-08-28T19:24:08.128Z,7.97
2022-08-28T19:26:37.031Z,8.60
2022-08-28T19:29:04.863Z,7.78
2022-08-28T19:31:33.917Z,8.77
2022-08-28T19:34:02.520Z,8.27
2022-08-28T19:36:30.653Z,8.82
2022-08-28T19:38:58.606Z,8.63
2022-08-28T19:41:27.505Z,8.88
2022-08-28T19:43:55.496Z,8.25
2022-08-28T19:46:23.016Z,7.32
2022-08-28T19:48:53.062Z,8.50
2022-08-28T19:51:24.138Z,7.80
2022-08-28T19:53:58.730Z,7.78
2022-08-28T19:56:30.264Z,7.95
2022-08-28T19:59:00.490Z,7.30
2022-08-28T20:01:31.771Z,7.97
2022-08-28T20:04:00.453Z,7.68
2022-08-28T20:06:31.130Z,8.98
2022-08-28T20:08:59.280Z,9.00
2022-08-28T20:11:30.165Z,7.50
2022-08-28T20:14:04.282Z,7.10
2022-08-28T20:16:39.478Z,8.20
2022-08-28T20:19:10.378Z,8.13
2022-08-28T20:21:41.799Z,8.13
2022-08-28T20:24:18.151Z,7.25
2022-08-28T20:26:46.775Z,7.05
2022-08-28T20:29:21.616Z,7.40
2022-08-28T20:31:49.472Z,7.22
2022-08-28T20:34:19.151Z,7.50
2022-08-28T20:36:47.746Z,8.40
2022-08-28T20:41:44.813Z,7.68
2022-08-28T20:44:16.931Z,7.60
2022-08-28T20:46:47.104Z,8.45
2022-08-28T20:49:22.097Z,7.57
2022-08-28T20:51:53.664Z,8.27
2022-08-28T20:54:23.762Z,8.38
2022-08-28T20:56:52.242Z,8.73
2022-08-28T20:59:22.245Z,8.50
2022-08-28T21:01:51.831Z,8.13
2022-08-28T21:04:21.020Z,9.70
2022-08-28T21:09:17.600Z,9.68
2022-08-28T21:11:45.682Z,9.30
2022-08-28T21:14:15.006Z,9.00
2022-08-28T21:16:44.065Z,8.80
2022-08-28T21:19:16.323Z,9.65
2022-08-28T21:21:46.420Z,9.52
2022-08-28T21:24:16.768Z,10.20
2022-08-28T21:26:50.607Z,9.52
2022-08-28T21:29:22.048Z,10.18
2022-08-28T21:31:52.215Z,10.82
2022-08-28T21:34:21.642Z,9.77
2022-08-28T21:36:50.715Z,9.35
2022-08-28T21:39:20.701Z,9.45
2022-08-28T21:41:49.474Z,9.93
2022-08-28T21:44:17.707Z,8.45
2022-08-28T21:46:45.880Z,8.70
2022-08-28T21:49:13.873Z,8.88
2022-08-28T21:51:41.642Z,7.85
2022-08-28T21:54:09.237Z,8.05
2022-08-28T21:56:37.136Z,8.52
2022-08-28T21:59:04.629Z,9.23
2022-08-28T22:01:32.187Z,8.02
2022-08-28T22:04:00.125Z,7.82
2022-08-28T22:06:27.738Z,7.88
2022-08-28T22:08:56.558Z,6.82
2022-08-28T22:13:57.281Z,7.50
2022-08-28T22:16:26.816Z,7.53
2022-08-28T22:18:55.068Z,7.30
2022-08-28T22:21:45.185Z,6.87
2022-08-28T22:24:14.097Z,6.07
2022-08-28T22:26:43.782Z,6.20
2022-08-28T22:29:12.084Z,6.18
2022-08-28T22:31:45.508Z,6.20
2022-08-28T22:34:14.978Z,6.13
2022-08-28T22:39:10.223Z,5.25
2022-08-28T22:41:38.697Z,4.65
2022-08-28T22:44:07.260Z,4.25
2022-08-28T22:46:36.111Z,5.00
2022-08-28T22:51:34.876Z,5.45
2022-08-28T22:54:02.974Z,6.28
2022-08-28T22:56:30.534Z,6.55
2022-08-28T22:58:58.286Z,7.97
2022-08-28T23:01:26.559Z,8.23
2022-08-28T23:03:54.231Z,8.48
2022-08-28T23:06:21.968Z,9.25
2022-08-28T23:08:49.939Z,9.35
2022-08-28T23:11:17.553Z,9.02
2022-08-28T23:13:45.494Z,9.38
2022-08-28T23:16:13.396Z,7.65
2022-08-28T23:19:06.552Z,6.65
2022-08-28T23:21:28.703Z,6.88
2022-08-28T23:23:56.621Z,6.55
2022-08-28T23:26:25.507Z,6.40
2022-08-28T23:28:53.306Z,6.78
2022-08-28T23:31:21.005Z,5.40
2022-08-28T23:33:49.283Z,5.70
2022-08-28T23:36:18.855Z,5.43
2022-08-28T23:38:46.319Z,5.97
2022-08-28T23:41:14.387Z,5.18
2022-08-28T23:43:42.521Z,5.43
2022-08-28T23:46:13.470Z,6.10
2022-08-28T23:48:41.423Z,5.55
2022-08-28T23:51:11.400Z,5.78
2022-08-28T23:53:42.539Z,6.18
2022-08-28T23:56:10.634Z,5.80
2022-08-28T23:58:43.211Z,5.47
